sensor_id;sensor_type;location;lat;lon;timestamp;temperature;humidity
582;DHT22;277;50.074;8.436;2024-01-11T00:00:42;-0.30;99.90
582;DHT22;277;50.074;8.436;2024-01-11T00:03:10;-0.20;99.90
582;DHT22;277;50.074;8.436;2024-01-11T00:05:40;-0.10;99.90
582;DHT22;277;50.074;8.436;2024-01-11T00:08:08;0.00;99.90
582;DHT22;277;50.074;8.436;2024-01-11T00:10:36;0.00;99.90
582;DHT22;277;50.074;8.436;2024-01-11T00:13:04;0.10;99.90
582;DHT22;277;50.074;8.436;2024-01-11T00:15:32;0.20;99.90
582;DHT22;277;50.074;8.436;2024-01-11T00:18:00;0.00;99.90
582;DHT22;277;50.074;8.436;2024-01-11T00:20:27;0.10;99.90
582;DHT22;277;50.074;8.436;2024-01-11T00:22:57;0.10;99.90
582;DHT22;277;50.074;8.436;2024-01-11T00:25:24;0.20;99.90
582;DHT22;277;50.074;8.436;2024-01-11T00:27:52;0.20;99.90
582;DHT22;277;50.074;8.436;2024-01-11T00:30:20;0.30;99.90
582;DHT22;277;50.074;8.436;2024-01-11T00:32:49;0.40;99.90
582;DHT22;277;50.074;8.436;2024-01-11T00:35:17;0.50;99.90
582;DHT22;277;50.074;8.436;2024-01-11T00:37:45;0.50;99.90
582;DHT22;277;50.074;8.436;2024-01-11T00:40:14;0.60;99.90
582;DHT22;277;50.074;8.436;2024-01-11T00:42:42;0.60;99.90
582;DHT22;277;50.074;8.436;2024-01-11T00:45:10;0.60;99.90
582;DHT22;277;50.074;8.436;2024-01-11T00:47:38;0.60;99.90
582;DHT22;277;50.074;8.436;2024-01-11T00:50:06;0.50;99.90
582;DHT22;277;50.074;8.436;2024-01-11T00:52:34;0.60;99.90
582;DHT22;277;50.074;8.436;2024-01-11T00:55:02;0.60;99.90
582;DHT22;277;50.074;8.436;2024-01-11T00:57:31;0.60;99.90
582;DHT22;277;50.074;8.436;2024-01-11T00:59:59;0.60;99.90
582;DHT22;277;50.074;8.436;2024-01-11T01:02:27;0.70;99.90
582;DHT22;277;50.074;8.436;2024-01-11T01:04:54;0.60;99.90
582;DHT22;277;50.074;8.436;2024-01-11T01:07:22;0.60;99.90
582;DHT22;277;50.074;8.436;2024-01-11T01:09:50;0.50;99.90
582;DHT22;277;50.074;8.436;2024-01-11T01:12:18;0.50;99.90
582;DHT22;277;50.074;8.436;2024-01-11T01:14:47;0.50;99.90
582;DHT22;277;50.074;8.436;2024-01-11T01:17:15;0.20;99.90
582;DHT22;277;50.074;8.436;2024-01-11T01:19:43;0.20;99.90
582;DHT22;277;50.074;8.436;2024-01-11T01:22:11;0.00;99.90
582;DHT22;277;50.074;8.436;2024-01-11T01:24:40;0.10;99.90
582;DHT22;277;50.074;8.436;2024-01-11T01:27:08;-0.10;99.90
582;DHT22;277;50.074;8.436;2024-01-11T01:29:36;-0.10;99.90
582;DHT22;277;50.074;8.436;2024-01-11T01:32:06;-0.20;99.90
582;DHT22;277;50.074;8.436;2024-01-11T01:34:33;-0.10;99.90
582;DHT22;277;50.074;8.436;2024-01-11T01:37:01;0.00;99.90
582;DHT22;277;50.074;8.436;2024-01-11T01:39:29;0.10;99.90
582;DHT22;277;50.074;8.436;2024-01-11T01:41:57;-0.20;99.90
582;DHT22;277;50.074;8.436;2024-01-11T01:44:24;-0.40;99.90
582;DHT22;277;50.074;8.436;2024-01-11T01:46:52;-0.70;99.90
582;DHT22;277;50.074;8.436;2024-01-11T01:49:22;-0.60;99.90
582;DHT22;277;50.074;8.436;2024-01-11T01:51:50;-0.50;99.90
582;DHT22;277;50.074;8.436;2024-01-11T01:54:18;-0.50;99.90
582;DHT22;277;50.074;8.436;2024-01-11T01:56:46;-0.40;99.90
582;DHT22;277;50.074;8.436;2024-01-11T01:59:14;-0.30;99.90
582;DHT22;277;50.074;8.436;2024-01-11T02:01:42;-0.40;99.90
582;DHT22;277;50.074;8.436;2024-01-11T02:04:10;-0.40;99.90
582;DHT22;277;50.074;8.436;2024-01-11T02:06:39;-0.50;99.90
582;DHT22;277;50.074;8.436;2024-01-11T02:09:08;-0.40;99.90
582;DHT22;277;50.074;8.436;2024-01-11T02:11:37;-0.70;99.90
582;DHT22;277;50.074;8.436;2024-01-11T02:14:05;-1.20;99.90
582;DHT22;277;50.074;8.436;2024-01-11T02:16:33;-1.10;99.90
582;DHT22;277;50.074;8.436;2024-01-11T02:19:01;-1.10;99.90
582;DHT22;277;50.074;8.436;2024-01-11T02:21:29;-1.00;99.90
582;DHT22;277;50.074;8.436;2024-01-11T02:24:03;-1.00;99.90
582;DHT22;277;50.074;8.436;2024-01-11T02:26:30;-0.90;99.90
582;DHT22;277;50.074;8.436;2024-01-11T02:28:58;-0.90;99.90
582;DHT22;277;50.074;8.436;2024-01-11T02:31:26;-1.20;99.90
582;DHT22;277;50.074;8.436;2024-01-11T02:33:55;-1.10;99.90
582;DHT22;277;50.074;8.436;2024-01-11T02:36:23;-1.20;99.90
582;DHT22;277;50.074;8.436;2024-01-11T02:38:52;-1.30;99.90
582;DHT22;277;50.074;8.436;2024-01-11T02:41:22;-1.30;99.90
582;DHT22;277;50.074;8.436;2024-01-11T02:43:50;-1.30;99.90
582;DHT22;277;50.074;8.436;2024-01-11T02:46:19;-1.40;99.90
582;DHT22;277;50.074;8.436;2024-01-11T02:48:47;-1.60;99.90
582;DHT22;277;50.074;8.436;2024-01-11T02:51:15;-1.30;99.90
582;DHT22;277;50.074;8.436;2024-01-11T02:53:42;-1.20;99.90
582;DHT22;277;50.074;8.436;2024-01-11T02:56:10;-0.90;99.90
582;DHT22;277;50.074;8.436;2024-01-11T02:58:39;-0.80;99.90
582;DHT22;277;50.074;8.436;2024-01-11T03:01:07;-0.80;99.90
582;DHT22;277;50.074;8.436;2024-01-11T03:03:35;-0.90;99.90
582;DHT22;277;50.074;8.436;2024-01-11T03:06:03;-0.80;99.90
582;DHT22;277;50.074;8.436;2024-01-11T03:08:31;-0.60;99.90
582;DHT22;277;50.074;8.436;2024-01-11T03:10:59;-0.50;99.90
582;DHT22;277;50.074;8.436;2024-01-11T03:13:27;-0.40;99.90
582;DHT22;277;50.074;8.436;2024-01-11T03:15:56;-0.60;99.90
582;DHT22;277;50.074;8.436;2024-01-11T03:18:25;-1.00;99.90
582;DHT22;277;50.074;8.436;2024-01-11T03:20:53;-1.20;99.90
582;DHT22;277;50.074;8.436;2024-01-11T03:23:21;-1.20;99.90
582;DHT22;277;50.074;8.436;2024-01-11T03:25:49;-1.00;99.90
582;DHT22;277;50.074;8.436;2024-01-11T03:28:17;-1.00;99.90
582;DHT22;277;50.074;8.436;2024-01-11T03:30:45;-0.90;99.90
582;DHT22;277;50.074;8.436;2024-01-11T03:33:14;-0.80;99.90
582;DHT22;277;50.074;8.436;2024-01-11T03:35:42;-0.50;99.90
582;DHT22;277;50.074;8.436;2024-01-11T03:38:10;-0.40;99.90
582;DHT22;277;50.074;8.436;2024-01-11T03:40:37;-0.50;99.90
582;DHT22;277;50.074;8.436;2024-01-11T03:43:05;-0.60;99.90
582;DHT22;277;50.074;8.436;2024-01-11T03:45:33;-0.50;99.90
582;DHT22;277;50.074;8.436;2024-01-11T03:48:01;-0.80;99.90
582;DHT22;277;50.074;8.436;2024-01-11T03:50:30;-0.80;99.90
582;DHT22;277;50.074;8.436;2024-01-11T03:52:58;-0.60;99.90
582;DHT22;277;50.074;8.436;2024-01-11T03:55:26;-0.40;99.90
582;DHT22;277;50.074;8.436;2024-01-11T03:57:54;-0.20;99.90
582;DHT22;277;50.074;8.436;2024-01-11T04:00:21;-0.10;99.90
582;DHT22;277;50.074;8.436;2024-01-11T04:02:49;0.00;99.90
582;DHT22;277;50.074;8.436;2024-01-11T04:05:17;0.00;99.90
582;DHT22;277;50.074;8.436;2024-01-11T04:07:46;-0.10;99.90
582;DHT22;277;50.074;8.436;2024-01-11T04:10:15;-0.30;99.90
582;DHT22;277;50.074;8.436;2024-01-11T04:12:43;-0.20;99.90
582;DHT22;277;50.074;8.436;2024-01-11T04:15:11;-0.10;99.90
582;DHT22;277;50.074;8.436;2024-01-11T04:17:39;0.00;99.90
582;DHT22;277;50.074;8.436;2024-01-11T04:20:07;0.10;99.90
582;DHT22;277;50.074;8.436;2024-01-11T04:22:35;0.10;99.90
582;DHT22;277;50.074;8.436;2024-01-11T04:25:05;0.00;99.90
582;DHT22;277;50.074;8.436;2024-01-11T04:27:33;0.10;99.90
582;DHT22;277;50.074;8.436;2024-01-11T04:30:01;-0.10;99.90
582;DHT22;277;50.074;8.436;2024-01-11T04:32:29;-0.20;99.90
582;DHT22;277;50.074;8.436;2024-01-11T04:34:57;-0.50;99.90
582;DHT22;277;50.074;8.436;2024-01-11T04:37:24;-0.70;99.90
582;DHT22;277;50.074;8.436;2024-01-11T04:39:52;-0.60;99.90
582;DHT22;277;50.074;8.436;2024-01-11T04:42:21;-0.60;99.90
582;DHT22;277;50.074;8.436;2024-01-11T04:44:49;-0.50;99.90
582;DHT22;277;50.074;8.436;2024-01-11T04:47:17;-0.60;99.90
582;DHT22;277;50.074;8.436;2024-01-11T04:49:44;-0.80;99.90
582;DHT22;277;50.074;8.436;2024-01-11T04:52:12;-0.80;99.90
582;DHT22;277;50.074;8.436;2024-01-11T04:54:40;-0.50;99.90
582;DHT22;277;50.074;8.436;2024-01-11T04:57:08;-0.80;99.90
582;DHT22;277;50.074;8.436;2024-01-11T04:59:37;-1.10;99.90
582;DHT22;277;50.074;8.436;2024-01-11T05:02:05;-1.20;99.90
582;DHT22;277;50.074;8.436;2024-01-11T05:04:32;-1.70;99.90
582;DHT22;277;50.074;8.436;2024-01-11T05:07:00;-2.00;99.90
582;DHT22;277;50.074;8.436;2024-01-11T05:09:28;-2.00;99.90
582;DHT22;277;50.074;8.436;2024-01-11T05:11:56;-2.10;99.90
582;DHT22;277;50.074;8.436;2024-01-11T05:14:24;-1.70;99.90
582;DHT22;277;50.074;8.436;2024-01-11T05:16:53;-1.20;99.90
582;DHT22;277;50.074;8.436;2024-01-11T05:19:21;-1.00;99.90
582;DHT22;277;50.074;8.436;2024-01-11T05:21:49;-1.40;99.90
582;DHT22;277;50.074;8.436;2024-01-11T05:24:16;-2.00;99.90
582;DHT22;277;50.074;8.436;2024-01-11T05:26:45;-2.30;99.90
582;DHT22;277;50.074;8.436;2024-01-11T05:29:12;-2.00;99.90
582;DHT22;277;50.074;8.436;2024-01-11T05:31:40;-1.70;99.90
582;DHT22;277;50.074;8.436;2024-01-11T05:34:09;-1.50;99.90
582;DHT22;277;50.074;8.436;2024-01-11T05:36:41;-1.40;99.90
582;DHT22;277;50.074;8.436;2024-01-11T05:39:08;-1.90;99.90
582;DHT22;277;50.074;8.436;2024-01-11T05:41:36;-2.10;99.90
582;DHT22;277;50.074;8.436;2024-01-11T05:44:05;-2.50;99.90
582;DHT22;277;50.074;8.436;2024-01-11T05:46:32;-2.70;99.90
582;DHT22;277;50.074;8.436;2024-01-11T05:49:00;-3.10;99.90
582;DHT22;277;50.074;8.436;2024-01-11T05:51:29;-3.50;99.90
582;DHT22;277;50.074;8.436;2024-01-11T05:53:57;-3.70;99.90
582;DHT22;277;50.074;8.436;2024-01-11T05:56:25;-3.90;99.90
582;DHT22;277;50.074;8.436;2024-01-11T05:58:52;-3.90;99.90
582;DHT22;277;50.074;8.436;2024-01-11T06:01:20;-3.80;99.90
582;DHT22;277;50.074;8.436;2024-01-11T06:03:48;-3.90;99.90
582;DHT22;277;50.074;8.436;2024-01-11T06:06:16;-4.10;99.90
582;DHT22;277;50.074;8.436;2024-01-11T06:08:46;-4.00;99.90
582;DHT22;277;50.074;8.436;2024-01-11T06:11:15;-4.10;99.90
582;DHT22;277;50.074;8.436;2024-01-11T06:13:45;-4.10;99.90
582;DHT22;277;50.074;8.436;2024-01-11T06:16:13;-4.20;99.90
582;DHT22;277;50.074;8.436;2024-01-11T06:18:41;-4.10;99.90
582;DHT22;277;50.074;8.436;2024-01-11T06:21:09;-4.20;99.90
582;DHT22;277;50.074;8.436;2024-01-11T06:23:37;-4.10;99.90
582;DHT22;277;50.074;8.436;2024-01-11T06:26:07;-4.20;99.90
582;DHT22;277;50.074;8.436;2024-01-11T06:28:35;-4.10;99.90
582;DHT22;277;50.074;8.436;2024-01-11T06:31:03;-4.10;99.90
582;DHT22;277;50.074;8.436;2024-01-11T06:33:31;-4.10;99.90
582;DHT22;277;50.074;8.436;2024-01-11T06:36:04;-4.20;99.90
582;DHT22;277;50.074;8.436;2024-01-11T06:38:32;-4.20;99.90
582;DHT22;277;50.074;8.436;2024-01-11T06:41:00;-4.30;99.90
582;DHT22;277;50.074;8.436;2024-01-11T06:43:30;-4.30;99.90
582;DHT22;277;50.074;8.436;2024-01-11T06:46:01;-4.30;99.90
582;DHT22;277;50.074;8.436;2024-01-11T06:48:29;-4.30;99.90
582;DHT22;277;50.074;8.436;2024-01-11T06:50:57;-4.20;99.90
582;DHT22;277;50.074;8.436;2024-01-11T06:53:28;-3.80;99.90
582;DHT22;277;50.074;8.436;2024-01-11T06:55:55;-4.00;99.90
582;DHT22;277;50.074;8.436;2024-01-11T06:58:23;-4.10;99.90
582;DHT22;277;50.074;8.436;2024-01-11T07:00:52;-4.20;99.90
582;DHT22;277;50.074;8.436;2024-01-11T07:03:20;-4.30;99.90
582;DHT22;277;50.074;8.436;2024-01-11T07:05:48;-4.30;99.90
582;DHT22;277;50.074;8.436;2024-01-11T07:08:16;-4.40;99.90
582;DHT22;277;50.074;8.436;2024-01-11T07:10:44;-4.30;99.90
582;DHT22;277;50.074;8.436;2024-01-11T07:13:14;-4.30;99.90
582;DHT22;277;50.074;8.436;2024-01-11T07:15:43;-4.30;99.90
582;DHT22;277;50.074;8.436;2024-01-11T07:18:12;-4.30;99.90
582;DHT22;277;50.074;8.436;2024-01-11T07:20:41;-4.30;99.90
582;DHT22;277;50.074;8.436;2024-01-11T07:23:09;-4.20;99.90
582;DHT22;277;50.074;8.436;2024-01-11T07:25:37;-4.20;99.90
582;DHT22;277;50.074;8.436;2024-01-11T07:28:05;-4.20;99.90
582;DHT22;277;50.074;8.436;2024-01-11T07:30:33;-4.20;99.90
582;DHT22;277;50.074;8.436;2024-01-11T07:33:01;-4.20;99.90
582;DHT22;277;50.074;8.436;2024-01-11T07:35:32;-4.20;99.90
582;DHT22;277;50.074;8.436;2024-01-11T07:38:00;-4.20;99.90
582;DHT22;277;50.074;8.436;2024-01-11T07:40:28;-4.30;99.90
582;DHT22;277;50.074;8.436;2024-01-11T07:42:59;-4.30;99.90
582;DHT22;277;50.074;8.436;2024-01-11T07:45:27;-4.30;99.90
582;DHT22;277;50.074;8.436;2024-01-11T07:47:54;-4.30;99.90
582;DHT22;277;50.074;8.436;2024-01-11T07:50:23;-4.20;99.90
582;DHT22;277;50.074;8.436;2024-01-11T07:52:52;-4.10;99.90
582;DHT22;277;50.074;8.436;2024-01-11T07:55:20;-3.90;99.90
582;DHT22;277;50.074;8.436;2024-01-11T07:57:50;-3.70;99.90
582;DHT22;277;50.074;8.436;2024-01-11T08:00:19;-3.50;99.90
582;DHT22;277;50.074;8.436;2024-01-11T08:02:46;-3.40;99.90
582;DHT22;277;50.074;8.436;2024-01-11T08:05:14;-3.20;99.90
582;DHT22;277;50.074;8.436;2024-01-11T08:07:43;-3.00;99.90
582;DHT22;277;50.074;8.436;2024-01-11T08:10:12;-2.80;99.90
582;DHT22;277;50.074;8.436;2024-01-11T08:12:40;-2.70;99.90
582;DHT22;277;50.074;8.436;2024-01-11T08:15:08;-2.50;99.90
582;DHT22;277;50.074;8.436;2024-01-11T08:17:39;-2.30;99.90
582;DHT22;277;50.074;8.436;2024-01-11T08:20:10;-2.10;99.90
582;DHT22;277;50.074;8.436;2024-01-11T08:22:38;-2.00;99.90
582;DHT22;277;50.074;8.436;2024-01-11T08:25:05;-1.90;99.90
582;DHT22;277;50.074;8.436;2024-01-11T08:27:35;-1.80;99.90
582;DHT22;277;50.074;8.436;2024-01-11T08:30:03;-1.60;99.90
582;DHT22;277;50.074;8.436;2024-01-11T08:32:32;-1.30;99.90
582;DHT22;277;50.074;8.436;2024-01-11T08:35:06;-1.20;99.90
582;DHT22;277;50.074;8.436;2024-01-11T08:37:35;-1.10;99.90
582;DHT22;277;50.074;8.436;2024-01-11T08:40:03;-0.80;99.90
582;DHT22;277;50.074;8.436;2024-01-11T08:42:34;-0.40;99.90
582;DHT22;277;50.074;8.436;2024-01-11T08:45:03;0.00;99.90
582;DHT22;277;50.074;8.436;2024-01-11T08:47:34;0.30;99.90
582;DHT22;277;50.074;8.436;2024-01-11T08:50:02;0.70;99.90
582;DHT22;277;50.074;8.436;2024-01-11T08:52:33;1.10;99.90
582;DHT22;277;50.074;8.436;2024-01-11T08:55:01;1.20;99.90
582;DHT22;277;50.074;8.436;2024-01-11T08:57:29;1.50;99.90
582;DHT22;277;50.074;8.436;2024-01-11T08:59:58;1.60;99.90
582;DHT22;277;50.074;8.436;2024-01-11T09:02:26;1.60;99.90
582;DHT22;277;50.074;8.436;2024-01-11T09:04:53;1.40;99.90
582;DHT22;277;50.074;8.436;2024-01-11T09:07:22;1.30;99.90
582;DHT22;277;50.074;8.436;2024-01-11T09:09:49;1.40;99.90
582;DHT22;277;50.074;8.436;2024-01-11T09:12:23;1.60;99.90
582;DHT22;277;50.074;8.436;2024-01-11T09:14:50;1.50;99.90
582;DHT22;277;50.074;8.436;2024-01-11T09:17:20;1.70;99.90
582;DHT22;277;50.074;8.436;2024-01-11T09:19:48;1.80;99.90
582;DHT22;277;50.074;8.436;2024-01-11T09:22:17;1.60;99.90
582;DHT22;277;50.074;8.436;2024-01-11T09:24:44;1.60;99.90
582;DHT22;277;50.074;8.436;2024-01-11T09:27:14;1.60;99.90
582;DHT22;277;50.074;8.436;2024-01-11T09:29:42;1.70;99.90
582;DHT22;277;50.074;8.436;2024-01-11T09:32:10;1.90;99.90
582;DHT22;277;50.074;8.436;2024-01-11T09:34:39;2.30;99.90
582;DHT22;277;50.074;8.436;2024-01-11T09:37:07;2.60;99.90
582;DHT22;277;50.074;8.436;2024-01-11T09:39:35;2.50;99.90
582;DHT22;277;50.074;8.436;2024-01-11T09:42:04;2.60;99.90
582;DHT22;277;50.074;8.436;2024-01-11T09:44:34;2.80;99.90
582;DHT22;277;50.074;8.436;2024-01-11T09:47:02;3.00;99.90
582;DHT22;277;50.074;8.436;2024-01-11T09:49:30;3.20;99.90
582;DHT22;277;50.074;8.436;2024-01-11T09:52:00;3.30;99.90
582;DHT22;277;50.074;8.436;2024-01-11T09:54:29;3.10;99.90
582;DHT22;277;50.074;8.436;2024-01-11T09:56:57;2.90;99.90
582;DHT22;277;50.074;8.436;2024-01-11T09:59:26;2.80;99.90
582;DHT22;277;50.074;8.436;2024-01-11T10:01:54;2.70;99.90
582;DHT22;277;50.074;8.436;2024-01-11T10:04:22;2.50;99.90
582;DHT22;277;50.074;8.436;2024-01-11T10:06:50;2.70;99.90
582;DHT22;277;50.074;8.436;2024-01-11T10:09:20;2.40;99.90
582;DHT22;277;50.074;8.436;2024-01-11T10:11:50;2.50;99.90
582;DHT22;277;50.074;8.436;2024-01-11T10:14:20;2.80;99.90
582;DHT22;277;50.074;8.436;2024-01-11T10:16:47;2.90;99.90
582;DHT22;277;50.074;8.436;2024-01-11T10:19:16;3.10;99.90
582;DHT22;277;50.074;8.436;2024-01-11T10:21:46;3.50;99.90
582;DHT22;277;50.074;8.436;2024-01-11T10:24:17;3.70;99.90
582;DHT22;277;50.074;8.436;2024-01-11T10:26:46;3.60;99.90
582;DHT22;277;50.074;8.436;2024-01-11T10:29:14;3.80;99.90
582;DHT22;277;50.074;8.436;2024-01-11T10:31:44;4.00;99.90
582;DHT22;277;50.074;8.436;2024-01-11T10:34:12;4.10;99.90
582;DHT22;277;50.074;8.436;2024-01-11T10:36:40;4.40;99.90
582;DHT22;277;50.074;8.436;2024-01-11T10:39:09;4.50;99.90
582;DHT22;277;50.074;8.436;2024-01-11T10:41:39;4.50;99.90
582;DHT22;277;50.074;8.436;2024-01-11T10:44:11;4.50;99.90
582;DHT22;277;50.074;8.436;2024-01-11T10:46:43;4.30;99.90
582;DHT22;277;50.074;8.436;2024-01-11T10:49:14;4.50;99.90
582;DHT22;277;50.074;8.436;2024-01-11T10:51:44;4.50;99.90
582;DHT22;277;50.074;8.436;2024-01-11T10:54:12;4.50;99.90
582;DHT22;277;50.074;8.436;2024-01-11T10:56:41;4.60;99.90
582;DHT22;277;50.074;8.436;2024-01-11T10:59:11;4.40;99.90
582;DHT22;277;50.074;8.436;2024-01-11T11:01:41;4.20;99.90
582;DHT22;277;50.074;8.436;2024-01-11T11:04:09;4.20;99.90
582;DHT22;277;50.074;8.436;2024-01-11T11:06:37;4.30;99.90
582;DHT22;277;50.074;8.436;2024-01-11T11:09:06;4.40;99.90
582;DHT22;277;50.074;8.436;2024-01-11T11:11:35;4.40;99.90
582;DHT22;277;50.074;8.436;2024-01-11T11:14:03;4.50;99.90
582;DHT22;277;50.074;8.436;2024-01-11T11:16:34;4.70;99.90
582;DHT22;277;50.074;8.436;2024-01-11T11:19:02;4.70;99.90
582;DHT22;277;50.074;8.436;2024-01-11T11:21:30;4.60;99.90
582;DHT22;277;50.074;8.436;2024-01-11T11:23:58;4.90;99.90
582;DHT22;277;50.074;8.436;2024-01-11T11:26:26;5.10;99.90
582;DHT22;277;50.074;8.436;2024-01-11T11:28:53;5.20;99.30
582;DHT22;277;50.074;8.436;2024-01-11T11:31:38;5.20;99.40
582;DHT22;277;50.074;8.436;2024-01-11T11:34:10;5.20;99.20
582;DHT22;277;50.074;8.436;2024-01-11T11:36:39;5.30;99.40
582;DHT22;277;50.074;8.436;2024-01-11T11:39:09;5.60;98.90
582;DHT22;277;50.074;8.436;2024-01-11T11:41:39;5.50;98.80
582;DHT22;277;50.074;8.436;2024-01-11T11:44:11;5.50;98.80
582;DHT22;277;50.074;8.436;2024-01-11T11:46:41;5.50;98.90
582;DHT22;277;50.074;8.436;2024-01-11T11:49:10;5.90;98.70
582;DHT22;277;50.074;8.436;2024-01-11T11:51:40;5.70;98.30
582;DHT22;277;50.074;8.436;2024-01-11T11:54:08;5.90;98.00
582;DHT22;277;50.074;8.436;2024-01-11T11:56:37;6.20;97.10
582;DHT22;277;50.074;8.436;2024-01-11T11:59:05;6.30;96.80
582;DHT22;277;50.074;8.436;2024-01-11T12:01:34;6.50;96.60
582;DHT22;277;50.074;8.436;2024-01-11T12:04:04;6.70;96.50
582;DHT22;277;50.074;8.436;2024-01-11T12:06:32;7.00;96.40
582;DHT22;277;50.074;8.436;2024-01-11T12:09:00;7.30;96.10
582;DHT22;277;50.074;8.436;2024-01-11T12:11:29;7.30;95.00
582;DHT22;277;50.074;8.436;2024-01-11T12:13:57;7.30;95.30
582;DHT22;277;50.074;8.436;2024-01-11T12:16:25;7.30;95.00
582;DHT22;277;50.074;8.436;2024-01-11T12:18:54;7.40;95.10
582;DHT22;277;50.074;8.436;2024-01-11T12:21:23;7.30;94.90
582;DHT22;277;50.074;8.436;2024-01-11T12:23:52;7.50;95.20
582;DHT22;277;50.074;8.436;2024-01-11T12:26:20;7.40;94.60
582;DHT22;277;50.074;8.436;2024-01-11T12:28:50;7.00;94.80
582;DHT22;277;50.074;8.436;2024-01-11T12:31:18;6.10;95.70
582;DHT22;277;50.074;8.436;2024-01-11T12:33:47;5.50;96.50
582;DHT22;277;50.074;8.436;2024-01-11T12:36:15;4.90;98.10
582;DHT22;277;50.074;8.436;2024-01-11T12:38:48;4.40;99.10
582;DHT22;277;50.074;8.436;2024-01-11T12:41:20;3.70;99.90
582;DHT22;277;50.074;8.436;2024-01-11T12:43:48;3.50;99.90
582;DHT22;277;50.074;8.436;2024-01-11T12:46:16;3.30;99.90
582;DHT22;277;50.074;8.436;2024-01-11T12:48:44;3.00;99.90
582;DHT22;277;50.074;8.436;2024-01-11T12:51:12;2.90;99.90
582;DHT22;277;50.074;8.436;2024-01-11T12:53:48;2.70;99.90
582;DHT22;277;50.074;8.436;2024-01-11T12:56:16;2.80;99.90
582;DHT22;277;50.074;8.436;2024-01-11T12:58:46;2.70;99.90
582;DHT22;277;50.074;8.436;2024-01-11T13:01:14;2.70;99.90
582;DHT22;277;50.074;8.436;2024-01-11T13:03:44;2.60;99.90
582;DHT22;277;50.074;8.436;2024-01-11T13:06:12;2.70;99.90
582;DHT22;277;50.074;8.436;2024-01-11T13:08:42;2.60;99.90
582;DHT22;277;50.074;8.436;2024-01-11T13:11:12;2.60;99.90
582;DHT22;277;50.074;8.436;2024-01-11T13:13:43;2.50;99.90
582;DHT22;277;50.074;8.436;2024-01-11T13:16:13;2.60;99.90
582;DHT22;277;50.074;8.436;2024-01-11T13:18:42;2.60;99.90
582;DHT22;277;50.074;8.436;2024-01-11T13:21:11;2.70;99.90
582;DHT22;277;50.074;8.436;2024-01-11T13:23:39;2.70;99.90
582;DHT22;277;50.074;8.436;2024-01-11T13:26:08;2.70;99.90
582;DHT22;277;50.074;8.436;2024-01-11T13:28:37;2.60;99.90
582;DHT22;277;50.074;8.436;2024-01-11T13:31:05;2.60;99.90
582;DHT22;277;50.074;8.436;2024-01-11T13:33:36;2.60;99.90
582;DHT22;277;50.074;8.436;2024-01-11T13:36:05;2.60;99.90
582;DHT22;277;50.074;8.436;2024-01-11T13:38:34;2.60;99.90
582;DHT22;277;50.074;8.436;2024-01-11T13:41:02;2.70;99.90
582;DHT22;277;50.074;8.436;2024-01-11T13:43:31;2.70;99.90
582;DHT22;277;50.074;8.436;2024-01-11T13:46:00;2.70;99.90
582;DHT22;277;50.074;8.436;2024-01-11T13:48:31;2.70;99.90
582;DHT22;277;50.074;8.436;2024-01-11T13:50:59;2.70;99.90
582;DHT22;277;50.074;8.436;2024-01-11T13:53:28;2.70;99.90
582;DHT22;277;50.074;8.436;2024-01-11T13:55:57;2.80;99.90
582;DHT22;277;50.074;8.436;2024-01-11T13:58:25;2.80;99.90
582;DHT22;277;50.074;8.436;2024-01-11T14:00:53;2.80;99.90
582;DHT22;277;50.074;8.436;2024-01-11T14:03:23;2.80;99.90
582;DHT22;277;50.074;8.436;2024-01-11T14:05:51;2.70;99.90
582;DHT22;277;50.074;8.436;2024-01-11T14:08:19;2.70;99.90
582;DHT22;277;50.074;8.436;2024-01-11T14:10:47;2.70;99.90
582;DHT22;277;50.074;8.436;2024-01-11T14:13:15;2.70;99.90
582;DHT22;277;50.074;8.436;2024-01-11T14:15:43;2.60;99.90
582;DHT22;277;50.074;8.436;2024-01-11T14:18:11;2.60;99.90
582;DHT22;277;50.074;8.436;2024-01-11T14:20:40;2.60;99.90
582;DHT22;277;50.074;8.436;2024-01-11T14:23:09;2.60;99.90
582;DHT22;277;50.074;8.436;2024-01-11T14:25:37;2.60;99.90
582;DHT22;277;50.074;8.436;2024-01-11T14:28:05;2.70;99.90
582;DHT22;277;50.074;8.436;2024-01-11T14:30:33;2.70;99.90
582;DHT22;277;50.074;8.436;2024-01-11T14:33:02;2.70;99.90
582;DHT22;277;50.074;8.436;2024-01-11T14:35:30;2.80;99.90
582;DHT22;277;50.074;8.436;2024-01-11T14:38:00;2.80;99.90
582;DHT22;277;50.074;8.436;2024-01-11T14:40:28;2.70;99.90
582;DHT22;277;50.074;8.436;2024-01-11T14:42:55;2.70;99.90
582;DHT22;277;50.074;8.436;2024-01-11T14:45:23;2.70;99.90
582;DHT22;277;50.074;8.436;2024-01-11T14:47:51;2.70;99.90
582;DHT22;277;50.074;8.436;2024-01-11T14:50:19;2.70;99.90
582;DHT22;277;50.074;8.436;2024-01-11T14:52:46;2.70;99.90
582;DHT22;277;50.074;8.436;2024-01-11T14:55:16;2.80;99.90
582;DHT22;277;50.074;8.436;2024-01-11T14:57:44;2.80;99.90
582;DHT22;277;50.074;8.436;2024-01-11T15:00:12;2.70;99.90
582;DHT22;277;50.074;8.436;2024-01-11T15:02:40;2.70;99.90
582;DHT22;277;50.074;8.436;2024-01-11T15:05:08;2.70;99.90
582;DHT22;277;50.074;8.436;2024-01-11T15:07:36;2.70;99.90
582;DHT22;277;50.074;8.436;2024-01-11T15:10:04;2.70;99.90
582;DHT22;277;50.074;8.436;2024-01-11T15:12:33;2.70;99.90
582;DHT22;277;50.074;8.436;2024-01-11T15:15:02;2.70;99.90
582;DHT22;277;50.074;8.436;2024-01-11T15:17:32;2.80;99.90
582;DHT22;277;50.074;8.436;2024-01-11T15:20:00;2.70;99.90
582;DHT22;277;50.074;8.436;2024-01-11T15:22:29;2.70;99.90
582;DHT22;277;50.074;8.436;2024-01-11T15:24:57;2.70;99.90
582;DHT22;277;50.074;8.436;2024-01-11T15:27:25;2.60;99.90
582;DHT22;277;50.074;8.436;2024-01-11T15:29:54;2.50;99.90
582;DHT22;277;50.074;8.436;2024-01-11T15:32:22;2.50;99.90
582;DHT22;277;50.074;8.436;2024-01-11T15:34:50;2.30;99.90
582;DHT22;277;50.074;8.436;2024-01-11T15:37:19;2.30;99.90
582;DHT22;277;50.074;8.436;2024-01-11T15:39:49;2.20;99.90
582;DHT22;277;50.074;8.436;2024-01-11T15:42:17;2.00;99.90
582;DHT22;277;50.074;8.436;2024-01-11T15:44:45;1.90;99.90
582;DHT22;277;50.074;8.436;2024-01-11T15:47:14;1.90;99.90
582;DHT22;277;50.074;8.436;2024-01-11T15:49:42;1.80;99.90
582;DHT22;277;50.074;8.436;2024-01-11T15:52:10;1.70;99.90
582;DHT22;277;50.074;8.436;2024-01-11T15:54:38;1.70;99.90
582;DHT22;277;50.074;8.436;2024-01-11T15:57:05;1.70;99.90
582;DHT22;277;50.074;8.436;2024-01-11T15:59:34;1.70;99.90
582;DHT22;277;50.074;8.436;2024-01-11T16:02:02;1.70;99.90
582;DHT22;277;50.074;8.436;2024-01-11T16:04:35;1.70;99.90
582;DHT22;277;50.074;8.436;2024-01-11T16:07:02;1.60;99.90
582;DHT22;277;50.074;8.436;2024-01-11T16:09:30;1.70;99.90
582;DHT22;277;50.074;8.436;2024-01-11T16:11:58;1.80;99.90
582;DHT22;277;50.074;8.436;2024-01-11T16:14:31;1.80;99.90
582;DHT22;277;50.074;8.436;2024-01-11T16:17:00;1.80;99.90
582;DHT22;277;50.074;8.436;2024-01-11T16:19:28;1.80;99.90
582;DHT22;277;50.074;8.436;2024-01-11T16:21:58;1.70;99.90
582;DHT22;277;50.074;8.436;2024-01-11T16:24:26;1.50;99.90
582;DHT22;277;50.074;8.436;2024-01-11T16:26:54;1.40;99.90
582;DHT22;277;50.074;8.436;2024-01-11T16:29:21;1.30;99.90
582;DHT22;277;50.074;8.436;2024-01-11T16:31:50;1.20;99.90
582;DHT22;277;50.074;8.436;2024-01-11T16:34:18;1.10;99.90
582;DHT22;277;50.074;8.436;2024-01-11T16:36:46;1.10;99.90
582;DHT22;277;50.074;8.436;2024-01-11T16:39:15;1.10;99.90
582;DHT22;277;50.074;8.436;2024-01-11T16:41:42;1.10;99.90
582;DHT22;277;50.074;8.436;2024-01-11T16:44:14;1.10;99.90
582;DHT22;277;50.074;8.436;2024-01-11T16:46:43;1.10;99.90
582;DHT22;277;50.074;8.436;2024-01-11T16:49:11;1.10;99.90
582;DHT22;277;50.074;8.436;2024-01-11T16:51:43;1.10;99.90